Pineville, New York
Current Conditions -  °F | °C
As of 7:55 AM on Wednesday 26 Nov 2014 (Local Time) from KMSV Reporting Station
Overcast Overcast  
Wind Chill: 30°   Ceiling: 5000
Heat Index: 34°   Visibility: 10mi
Dew Point: 27°   Wind: 5mph
Humidity: 75%   Direction: 20°NNE
Pressure: 30.12"   Gusts: NA
Location:  42.1536°N, 75.1637°W
Report Text: KMSV 261255Z AUTO 02004KT 10SM FEW042 BKN050 OVC070 01/M03 A3012 RMK AO1
Loading
Personal Weather Stations






























Interactive Weather Map New forecast layout! Learn more

10-Day Weather Forecast

Advertisements
Track Severe Weather on mobile